Time;durP1;ratioP1;P1;durP2;ratioP2;P2;SDS_P1;SDS_P2;PMS_P1;PMS_P2;Temp;Humidity;BMP_temperature;BMP_pressure;BME280_temperature;BME280_humidity;BME280_pressure;Samples;Min_cycle;Max_cycle;Signal;HPM_P1;HPM_P2
2023/01/07 00:02:06;;;;;;;25.83;12.13;;;;;;;2.39;68.00;101318.25;123757;1101;104245;-85
2023/01/07 00:04:37;;;;;;;27.93;12.03;;;;;;;2.39;68.38;101333.80;123801;1102;104283;-83
2023/01/07 00:07:08;;;;;;;29.13;12.40;;;;;;;2.40;67.80;101334.69;123783;1100;104245;-85
2023/01/07 00:09:39;;;;;;;32.57;13.83;;;;;;;2.42;67.60;101333.14;123910;1102;104270;-85
2023/01/07 00:12:11;;;;;;;33.00;13.53;;;;;;;2.42;68.04;101334.05;123845;1099;104347;-84
2023/01/07 00:14:42;;;;;;;28.27;13.27;;;;;;;2.42;68.26;101326.27;123820;1102;104223;-83
2023/01/07 00:17:13;;;;;;;29.83;14.00;;;;;;;2.43;67.82;101327.16;123850;1100;104562;-84
2023/01/07 00:19:44;;;;;;;30.97;14.27;;;;;;;2.43;67.95;101330.69;123787;1101;104340;-84
2023/01/07 00:22:15;;;;;;;29.53;13.70;;;;;;;2.45;67.79;101323.03;123824;1102;104344;-84
2023/01/07 00:24:47;;;;;;;40.10;20.10;;;;;;;2.45;68.35;101323.93;123915;1102;104344;-82
2023/01/07 00:27:18;;;;;;;38.73;19.63;;;;;;;2.46;68.13;101317.05;123955;1102;104268;-84
2023/01/07 00:29:49;;;;;;;39.77;20.60;;;;;;;2.42;67.66;101320.20;123901;1101;104686;-85
2023/01/07 00:32:40;;;;;;;41.60;21.63;;;;;;;2.37;68.05;101316.30;124012;1102;104168;-81
2023/01/07 00:35:21;;;;;;;42.07;21.73;;;;;;;2.34;68.15;101314.39;124040;1102;104248;-84
2023/01/07 00:37:54;;;;;;;45.60;22.43;;;;;;;2.33;68.13;101308.28;124008;1102;104632;-83
2023/01/07 00:40:25;;;;;;;45.40;21.73;;;;;;;2.32;68.28;101302.97;124290;1102;104245;-84
2023/01/07 00:43:00;;;;;;;41.00;20.87;;;;;;;2.29;67.75;101294.95;124080;1100;104379;-82
2023/01/07 00:45:33;;;;;;;39.07;20.33;;;;;;;2.28;68.80;101300.94;123928;1101;104297;-85
2023/01/07 00:48:05;;;;;;;40.45;18.90;;;;;;;2.26;67.91;101303.41;123945;1099;104268;-84
2023/01/07 00:50:38;;;;;;;38.03;19.40;;;;;;;2.22;68.47;101308.20;123779;1099;104242;-84
2023/01/07 00:53:11;;;;;;;35.10;18.10;;;;;;;2.20;67.98;101308.08;123844;1102;104290;-83
2023/01/07 00:55:43;;;;;;;40.63;19.23;;;;;;;2.19;68.52;101314.02;123847;1099;104360;-83
2023/01/07 00:58:17;;;;;;;39.50;19.50;;;;;;;2.18;68.18;101311.31;123793;1102;104326;-79
2023/01/07 01:00:47;;;;;;;;;;;;;;;2.13;68.26;101316.11;123916;1102;104847;-83
2023/01/07 01:03:18;;;;;;;36.37;18.27;;;;;;;2.07;68.36;101311.35;123820;1102;104288;-83
2023/01/07 01:05:49;;;;;;;40.10;18.90;;;;;;;2.05;68.09;101311.98;123793;1102;104261;-83
2023/01/07 01:08:22;;;;;;;35.43;16.90;;;;;;;1.99;68.63;101312.38;123884;1099;104411;-85
2023/01/07 01:10:53;;;;;;;36.85;17.80;;;;;;;1.96;68.61;101304.35;123834;1099;104402;-85
2023/01/07 01:13:24;;;;;;;42.50;19.00;;;;;;;1.92;68.44;101304.91;123724;1102;104268;-84
2023/01/07 01:15:56;;;;;;;42.67;19.20;;;;;;;1.85;68.50;101295.70;123879;1100;104229;-83
2023/01/07 01:18:27;;;;;;;35.73;16.90;;;;;;;1.77;68.53;101300.23;123838;1102;104233;-84
2023/01/07 01:21:05;;;;;;;38.03;17.93;;;;;;;1.71;68.00;101297.13;123807;1102;104405;-84
2023/01/07 01:23:37;;;;;;;36.20;18.35;;;;;;;1.65;68.71;101294.02;123929;1102;104262;-84
2023/01/07 01:26:11;;;;;;;40.07;19.53;;;;;;;1.59;68.38;101293.51;123806;1102;104251;-82
2023/01/07 01:28:42;;;;;;;39.25;19.62;;;;;;;1.56;68.63;101288.11;123871;1099;104299;-83
2023/01/07 01:31:14;;;;;;;40.20;19.93;;;;;;;1.54;68.63;101281.88;123838;1099;104230;-84
2023/01/07 01:33:52;;;;;;;40.13;20.37;;;;;;;1.54;68.51;101290.57;123804;1099;104356;-84
2023/01/07 01:36:22;;;;;;;;;;;;;;;1.49;68.95;101285.77;123830;1102;104383;-83
2023/01/07 01:38:56;;;;;;;40.43;19.97;;;;;;;1.45;68.78;101287.20;123818;1102;104252;-85
2023/01/07 01:41:27;;;;;;;41.37;19.77;;;;;;;1.41;68.56;101283.42;123755;1100;104373;-83
2023/01/07 01:43:59;;;;;;;44.37;21.07;;;;;;;1.39;68.46;101284.98;123834;1102;104499;-84
2023/01/07 01:46:34;;;;;;;42.10;21.47;;;;;;;1.36;68.50;101283.83;123790;1099;104294;-83
2023/01/07 01:49:22;;;;;;;42.97;20.40;;;;;;;1.31;68.76;101288.61;123867;1102;104239;-85
2023/01/07 01:52:08;;;;;;;39.03;20.23;;;;;;;1.25;68.96;101295.84;123816;1099;104242;-85
2023/01/07 01:54:44;;;;;;;40.60;19.87;;;;;;;1.18;68.62;101301.25;123836;1099;104257;-84
2023/01/07 01:57:18;;;;;;;36.80;18.80;;;;;;;1.12;69.15;101296.45;123873;1100;104223;-82
2023/01/07 01:59:52;;;;;;;40.27;19.30;;;;;;;1.09;68.82;101309.11;123787;1102;104370;-84
2023/01/07 02:02:29;;;;;;;39.50;19.67;;;;;;;1.03;68.86;101308.61;123787;1102;104716;-84
2023/01/07 02:05:02;;;;;;;42.80;21.50;;;;;;;1.02;68.52;101311.95;123919;1102;104274;-85
2023/01/07 02:07:33;;;;;;;42.03;19.10;;;;;;;1.02;69.11;101323.19;123854;1102;110168;-85
2023/01/07 02:10:14;;;;;;;42.83;19.87;;;;;;;1.03;68.84;101324.12;123793;1100;104255;-85
2023/01/07 02:13:06;;;;;;;42.77;20.30;;;;;;;1.02;68.79;101311.95;124078;1099;104296;-84
2023/01/07 02:15:50;;;;;;;45.17;21.30;;;;;;;1.03;69.39;101308.61;123701;1102;104482;-82
2023/01/07 02:18:36;;;;;;;41.92;20.82;;;;;;;1.03;68.76;101300.86;123824;1101;104251;-84
2023/01/07 02:21:21;;;;;;;43.33;20.83;;;;;;;1.02;68.72;101294.76;123797;1102;104233;-83
2023/01/07 02:24:30;;;;;;;41.50;20.60;;;;;;;1.02;68.87;101289.59;123779;1100;104247;-85
2023/01/07 02:27:32;;;;;;;42.60;19.30;;;;;;;1.04;69.16;101288.06;123640;1101;104382;-84
2023/01/07 02:30:58;;;;;;;39.77;18.13;;;;;;;1.11;69.37;101288.56;123734;1099;104313;-84
2023/01/07 02:33:37;;;;;;;39.43;18.13;;;;;;;1.16;69.38;101292.47;123335;1103;104386;-83
2023/01/07 02:36:27;;;;;;;36.97;19.07;;;;;;;1.19;69.04;101284.98;123806;1099;104339;-84
2023/01/07 02:39:10;;;;;;;34.77;16.83;;;;;;;1.22;68.92;101282.66;123687;1102;104395;-84
2023/01/07 02:41:51;;;;;;;36.87;16.27;;;;;;;1.24;69.29;101279.41;123774;1102;104245;-85
2023/01/07 02:44:32;;;;;;;34.50;16.30;;;;;;;1.27;69.66;101280.46;123738;1102;104315;-83
2023/01/07 02:47:10;;;;;;;37.43;18.37;;;;;;;1.27;69.79;101278.77;123805;1100;104285;-83
2023/01/07 02:49:41;;;;;;;35.13;18.20;;;;;;;1.29;69.64;101279.80;123689;1102;104306;-85
2023/01/07 02:52:23;;;;;;;36.70;19.37;;;;;;;1.31;69.67;101282.52;123866;1099;104261;-84
2023/01/07 02:54:58;;;;;;;36.90;19.67;;;;;;;1.28;69.54;101287.42;123784;1102;104775;-83
2023/01/07 02:57:58;;;;;;;39.43;20.93;;;;;;;1.28;69.70;101290.01;123941;1102;104294;-81
2023/01/07 03:00:51;;;;;;;40.30;21.33;;;;;;;1.29;69.95;101295.31;123828;1102;104347;-84
2023/01/07 03:03:35;;;;;;;42.27;20.10;;;;;;;1.28;69.71;101290.01;123779;1099;104376;-83
2023/01/07 03:06:22;;;;;;;41.73;21.77;;;;;;;1.28;69.98;101287.42;123792;1101;104732;-85
2023/01/07 03:09:09;;;;;;;43.30;22.20;;;;;;;1.25;69.87;101286.40;123912;1099;119219;-85
2023/01/07 03:11:47;;;;;;;42.40;21.37;;;;;;;1.27;69.74;101273.60;123762;1099;104275;-85
2023/01/07 03:14:23;;;;;;;45.80;22.33;;;;;;;1.30;70.15;101272.97;123784;1099;104270;-85
2023/01/07 03:16:58;;;;;;;40.07;21.47;;;;;;;1.33;70.43;101276.70;123744;1099;104226;-83
2023/01/07 03:19:32;;;;;;;40.87;21.33;;;;;;;1.35;70.29;101276.84;123805;1102;104319;-86
2023/01/07 03:22:08;;;;;;;42.70;22.40;;;;;;;1.38;70.07;101279.69;123945;1102;104316;-84
2023/01/07 03:24:40;;;;;;;40.37;21.30;;;;;;;1.37;70.28;101276.20;123954;1102;104245;-83
2023/01/07 03:27:13;;;;;;;42.13;21.53;;;;;;;1.36;70.04;101283.83;123959;1102;104197;-82
2023/01/07 03:29:44;;;;;;;39.27;21.07;;;;;;;1.33;69.97;101289.64;123865;1099;104299;-83
2023/01/07 03:32:22;;;;;;;43.00;21.57;;;;;;;1.32;69.74;101280.06;123944;1099;104268;-83
2023/01/07 03:34:55;;;;;;;42.27;20.93;;;;;;;1.35;70.20;101277.73;123949;1099;104389;-84
2023/01/07 03:37:28;;;;;;;44.40;21.20;;;;;;;1.37;70.21;101278.80;123964;1099;104245;-82
2023/01/07 03:40:05;;;;;;;49.10;23.10;;;;;;;1.38;70.46;101275.41;123989;1102;104223;-84
2023/01/07 03:42:44;;;;;;;44.93;23.67;;;;;;;1.41;70.49;101278.25;123888;1099;104274;-84
2023/01/07 03:45:25;;;;;;;40.83;22.47;;;;;;;1.46;70.15;101280.34;123930;1102;104221;-85
2023/01/07 03:47:58;;;;;;;44.93;23.50;;;;;;;1.48;70.66;101290.05;123871;1102;104460;-84
2023/01/07 03:50:36;;;;;;;43.27;22.60;;;;;;;1.54;70.61;101294.81;123852;1102;104322;-83
2023/01/07 03:53:07;;;;;;;45.23;23.00;;;;;;;1.57;70.14;101295.08;123811;1102;104277;-83
2023/01/07 03:55:39;;;;;;;42.97;23.23;;;;;;;1.55;70.63;101299.22;123863;1099;104222;-83
2023/01/07 03:58:11;;;;;;;46.60;23.40;;;;;;;1.57;70.44;101296.00;123903;1098;104328;-84
2023/01/07 04:00:42;;;;;;;43.57;23.10;;;;;;;1.57;70.17;101301.17;123821;1102;104229;-84
2023/01/07 04:03:17;;;;;;;46.00;23.10;;;;;;;1.59;70.76;101302.20;123802;1099;104246;-84
2023/01/07 04:05:50;;;;;;;42.55;22.90;;;;;;;1.64;70.49;101304.25;123795;1099;104277;-83
2023/01/07 04:08:21;;;;;;;42.85;22.20;;;;;;;1.66;70.43;101301.02;123731;1101;104223;-84
2023/01/07 04:10:53;;;;;;;41.50;20.43;;;;;;;1.68;70.39;101298.56;123799;1100;104267;-83
2023/01/07 04:13:24;;;;;;;44.43;20.97;;;;;;;1.68;70.74;101304.63;123847;1102;104296;-84
2023/01/07 04:15:56;;;;;;;40.67;20.03;;;;;;;1.69;70.79;101314.22;123675;1101;104408;-84
2023/01/07 04:18:27;;;;;;;43.30;21.03;;;;;;;1.70;70.60;101309.94;123737;1102;104409;-82
2023/01/07 04:20:59;;;;;;;37.70;19.83;;;;;;;1.70;70.45;101313.45;123686;1102;104268;-83
2023/01/07 04:23:30;;;;;;;42.10;18.85;;;;;;;1.72;71.03;101319.66;123844;1102;104281;-83
2023/01/07 04:26:02;;;;;;;39.07;18.43;;;;;;;1.73;70.50;101318.89;123725;1099;104421;-84
2023/01/07 04:28:33;;;;;;;39.27;18.70;;;;;;;1.73;70.52;101320.55;123829;1099;104270;-84
2023/01/07 04:31:05;;;;;;;38.20;18.37;;;;;;;1.73;70.62;101323.13;123761;1100;104325;-83
2023/01/07 04:33:37;;;;;;;35.57;17.30;;;;;;;1.72;70.69;101321.34;123822;1099;104268;-83
2023/01/07 04:36:10;;;;;;;32.93;16.03;;;;;;;1.72;71.01;101324.83;123838;1099;104268;-84
2023/01/07 04:38:41;;;;;;;35.47;17.27;;;;;;;1.71;70.95;101327.28;123834;1102;104213;-84
2023/01/07 04:41:13;;;;;;;34.60;16.27;;;;;;;1.70;70.75;101328.98;123905;1099;104728;-84
2023/01/07 04:43:45;;;;;;;33.10;16.03;;;;;;;1.71;70.88;101324.70;123744;1100;104447;-84
2023/01/07 04:46:16;;;;;;;35.00;16.37;;;;;;;1.71;71.05;101325.59;123702;1101;104380;-84
2023/01/07 04:48:47;;;;;;;36.70;17.30;;;;;;;1.74;70.81;101323.27;123855;1102;104323;-83
2023/01/07 04:51:20;;;;;;;33.40;16.80;;;;;;;1.75;71.23;101327.67;123837;1099;104326;-84
2023/01/07 04:53:51;;;;;;;34.43;17.13;;;;;;;1.75;70.57;101321.61;123783;1099;104341;-84
2023/01/07 04:56:22;;;;;;;37.40;17.67;;;;;;;1.78;70.76;101330.52;123754;1100;104307;-84
2023/01/07 04:58:54;;;;;;;33.07;17.27;;;;;;;1.79;70.93;101334.93;123701;1099;104194;-83
2023/01/07 05:01:29;;;;;;;41.57;18.30;;;;;;;1.80;71.25;101336.72;123775;1099;104315;-83
2023/01/07 05:04:01;;;;;;;36.13;17.83;;;;;;;1.82;70.67;101334.26;124011;1102;104169;-84
2023/01/07 05:06:32;;;;;;;37.13;17.50;;;;;;;1.81;70.81;101342.82;123801;1102;104252;-84
2023/01/07 05:09:04;;;;;;;38.55;17.90;;;;;;;1.81;70.96;101335.06;123867;1099;104227;-83
2023/01/07 05:11:36;;;;;;;34.57;17.67;;;;;;;1.80;70.93;101333.23;123765;1099;109497;-82
2023/01/07 05:14:09;;;;;;;35.17;17.23;;;;;;;1.82;71.24;101343.72;123781;1099;104219;-83
2023/01/07 05:16:41;;;;;;;41.63;17.57;;;;;;;1.81;70.78;101337.64;123722;1099;104203;-83
2023/01/07 05:19:14;;;;;;;31.40;15.40;;;;;;;1.79;70.88;101334.93;123785;1099;104393;-82
2023/01/07 05:21:48;;;;;;;32.43;15.57;;;;;;;1.78;70.92;101340.88;123772;1099;104198;-84
2023/01/07 05:24:20;;;;;;;33.40;15.40;;;;;;;1.77;71.25;101343.33;123790;1099;104353;-82
2023/01/07 05:26:53;;;;;;;32.17;15.20;;;;;;;1.76;70.83;101354.45;123772;1099;104242;-84
2023/01/07 05:29:24;;;;;;;32.37;14.80;;;;;;;1.73;71.57;101355.11;123723;1099;104366;-84
2023/01/07 05:31:55;;;;;;;31.43;14.13;;;;;;;1.71;71.11;101350.57;123862;1102;104354;-84
2023/01/07 05:34:27;;;;;;;32.17;15.27;;;;;;;1.71;71.36;101355.75;123815;1102;104207;-82
2023/01/07 05:36:59;;;;;;;28.07;13.77;;;;;;;1.70;70.84;101356.52;123774;1100;104338;-83
2023/01/07 05:39:30;;;;;;;27.33;13.00;;;;;;;1.68;71.08;101358.97;123805;1102;104229;-80
2023/01/07 05:42:02;;;;;;;30.83;13.73;;;;;;;1.67;71.02;101359.77;123736;1102;117776;-82
2023/01/07 05:44:33;;;;;;;30.57;14.27;;;;;;;1.66;71.27;101365.70;123814;1102;104258;-83
2023/01/07 05:47:05;;;;;;;32.47;13.67;;;;;;;1.67;71.33;101364.94;123765;1099;104370;-84
2023/01/07 05:49:36;;;;;;;29.67;13.50;;;;;;;1.67;71.14;101359.77;123800;1099;104291;-84
2023/01/07 05:52:07;;;;;;;27.80;13.40;;;;;;;1.69;71.38;101367.66;123840;1099;104284;-82
2023/01/07 05:54:38;;;;;;;28.37;14.03;;;;;;;1.71;71.35;101366.99;123907;1099;104242;-83
2023/01/07 05:57:10;;;;;;;32.03;14.27;;;;;;;1.72;71.02;101362.75;123812;1099;104185;-84
2023/01/07 05:59:41;;;;;;;29.50;14.00;;;;;;;1.73;71.36;101347.34;123782;1099;104251;-82
2023/01/07 06:02:12;;;;;;;29.60;14.60;;;;;;;1.74;70.89;101350.83;123772;1099;104257;-85
2023/01/07 06:04:43;;;;;;;29.67;14.97;;;;;;;1.73;71.47;101343.83;123862;1099;104179;-84
2023/01/07 06:07:15;;;;;;;30.50;14.30;;;;;;;1.73;70.99;101349.94;123786;1099;104402;-83
2023/01/07 06:09:46;;;;;;;33.33;15.13;;;;;;;1.73;71.69;101346.42;123725;1102;104278;-84
2023/01/07 06:12:17;;;;;;;28.37;13.90;;;;;;;1.72;71.12;101347.22;123775;1099;104226;-83
2023/01/07 06:14:49;;;;;;;29.00;13.60;;;;;;;1.72;71.50;101349.81;123862;1098;104379;-84
2023/01/07 06:17:20;;;;;;;33.50;14.50;;;;;;;1.70;71.27;101354.85;123862;1099;104399;-83
2023/01/07 06:19:51;;;;;;;29.63;14.77;;;;;;;1.73;71.50;101354.19;123811;1099;104376;-84
2023/01/07 06:22:22;;;;;;;31.10;14.57;;;;;;;1.74;71.41;101367.25;123740;1099;104242;-84
2023/01/07 06:24:53;;;;;;;30.87;14.17;;;;;;;1.72;71.85;101363.64;123678;1099;104267;-84
2023/01/07 06:27:25;;;;;;;30.70;14.97;;;;;;;1.75;71.24;101369.08;123713;1100;104242;-84
2023/01/07 06:29:56;;;;;;;30.30;13.40;;;;;;;1.75;71.55;101368.18;123788;1100;104274;-83
2023/01/07 06:32:27;;;;;;;25.83;13.13;;;;;;;1.77;71.35;101382.14;123754;1099;104357;-84
2023/01/07 06:34:58;;;;;;;28.90;13.73;;;;;;;1.78;71.79;101378.80;123717;1099;104287;-84
2023/01/07 06:37:30;;;;;;;30.00;14.17;;;;;;;1.84;71.29;101383.56;123770;1099;104271;-84
2023/01/07 06:40:01;;;;;;;29.27;13.27;;;;;;;1.87;71.56;101381.23;123754;1099;104268;-84
2023/01/07 06:42:32;;;;;;;25.77;13.03;;;;;;;1.91;71.47;101372.96;123755;1099;102079;-81
2023/01/07 06:45:04;;;;;;;26.50;12.83;;;;;;;1.95;71.71;101372.45;123870;1099;104277;-83
2023/01/07 06:47:35;;;;;;;26.53;12.50;;;;;;;1.99;72.06;101377.09;123929;1097;104287;-84
2023/01/07 06:50:08;;;;;;;26.93;12.53;;;;;;;2.00;71.35;101376.33;123947;1099;104278;-82
2023/01/07 06:52:39;;;;;;;27.23;13.13;;;;;;;2.02;71.70;101372.17;123840;1102;104325;-82
2023/01/07 06:55:11;;;;;;;29.00;12.93;;;;;;;2.07;72.25;101368.31;123833;1099;104345;-84
2023/01/07 06:57:42;;;;;;;30.37;13.67;;;;;;;2.09;71.86;101369.33;123835;1102;104176;-84
2023/01/07 07:00:15;;;;;;;30.60;13.80;;;;;;;2.12;71.16;101369.59;123789;1099;104242;-84
2023/01/07 07:02:46;;;;;;;28.77;13.63;;;;;;;2.14;71.65;101368.02;123834;1102;104300;-83
2023/01/07 07:05:18;;;;;;;28.13;12.60;;;;;;;2.14;71.81;101375.79;123890;1099;104274;-84
2023/01/07 07:07:50;;;;;;;27.53;12.70;;;;;;;2.13;71.99;101373.97;123854;1099;104280;-85
2023/01/07 07:10:21;;;;;;;28.97;13.37;;;;;;;2.15;71.27;101368.91;123801;1100;104321;-83
2023/01/07 07:12:52;;;;;;;27.70;12.67;;;;;;;2.19;71.60;101367.52;123806;1102;104280;-84
2023/01/07 07:15:23;;;;;;;29.37;13.13;;;;;;;2.22;71.91;101366.07;123816;1099;104344;-84
2023/01/07 07:17:55;;;;;;;27.70;12.67;;;;;;;2.27;71.71;101361.27;123765;1099;104239;-83
2023/01/07 07:20:26;;;;;;;27.10;12.77;;;;;;;2.31;71.17;101368.53;123857;1099;104753;-85
2023/01/07 07:22:57;;;;;;;24.13;11.93;;;;;;;2.38;71.87;101365.64;123853;1099;104819;-83
2023/01/07 07:25:28;;;;;;;26.37;12.07;;;;;;;2.44;72.47;101370.44;123750;1099;104300;-82
2023/01/07 07:28:00;;;;;;;24.93;12.47;;;;;;;2.50;71.78;101371.83;123834;1099;104319;-85
2023/01/07 07:30:31;;;;;;;24.93;11.80;;;;;;;2.50;71.57;101389.08;123826;1100;104246;-84
2023/01/07 07:33:04;;;;;;;26.90;12.53;;;;;;;2.46;71.30;101380.16;123734;1099;104201;-83
2023/01/07 07:35:36;;;;;;;27.43;12.37;;;;;;;2.50;71.70;101379.61;123795;1099;104271;-84
2023/01/07 07:38:07;;;;;;;25.87;12.00;;;;;;;2.51;71.55;101371.06;123825;1102;104274;-83
2023/01/07 07:40:38;;;;;;;24.33;12.20;;;;;;;2.59;71.36;101373.39;123740;1099;104342;-84
2023/01/07 07:43:10;;;;;;;25.20;11.05;;;;;;;2.64;71.61;101369.48;123797;1099;104169;-83
2023/01/07 07:45:41;;;;;;;29.00;11.90;;;;;;;2.65;72.08;101368.67;123825;1098;104348;-84
2023/01/07 07:48:15;;;;;;;26.93;12.40;;;;;;;2.68;72.08;101368.92;123822;1098;104431;-84
2023/01/07 07:50:50;;;;;;;25.75;12.07;;;;;;;2.70;72.30;101373.46;123789;1099;104271;-84
2023/01/07 07:53:21;;;;;;;25.67;11.87;;;;;;;2.72;71.66;101380.47;123798;1099;104206;-84
2023/01/07 07:55:53;;;;;;;27.40;12.80;;;;;;;2.71;72.13;101382.13;123855;1099;104197;-83
2023/01/07 07:58:24;;;;;;;25.17;11.67;;;;;;;2.75;71.89;101373.84;123817;1099;104316;-84
2023/01/07 08:00:55;;;;;;;25.80;12.43;;;;;;;2.76;72.13;101373.06;123806;1099;104393;-83
2023/01/07 08:03:26;;;;;;;25.10;11.65;;;;;;;2.79;71.94;101375.91;123839;1099;104323;-81
2023/01/07 08:05:58;;;;;;;24.90;11.40;;;;;;;2.84;71.72;101374.58;123744;1099;104275;-84
2023/01/07 08:08:29;;;;;;;27.53;12.30;;;;;;;2.87;72.38;101374.83;123796;1099;104246;-84
2023/01/07 08:11:02;;;;;;;24.77;11.80;;;;;;;2.90;72.42;101383.63;123785;1099;104187;-85
2023/01/07 08:13:34;;;;;;;23.67;11.00;;;;;;;2.87;72.28;101384.30;123856;1099;104323;-84
2023/01/07 08:16:05;;;;;;;26.07;12.57;;;;;;;2.85;71.90;101384.17;123778;1099;104338;-83
2023/01/07 08:18:38;;;;;;;27.33;12.00;;;;;;;2.85;71.80;101386.77;123850;1099;104364;-83
2023/01/07 08:21:09;;;;;;;26.40;11.93;;;;;;;2.84;72.22;101390.13;123697;1102;105092;-84
2023/01/07 08:23:41;;;;;;;25.47;11.90;;;;;;;2.86;71.59;101393.74;123740;1099;104269;-83
2023/01/07 08:26:12;;;;;;;26.20;12.10;;;;;;;2.89;71.99;101395.69;123896;1099;104322;-84
2023/01/07 08:28:43;;;;;;;24.50;11.60;;;;;;;2.94;71.93;101401.25;123800;1099;104360;-84
2023/01/07 08:31:14;;;;;;;25.67;11.47;;;;;;;2.98;72.40;101395.54;123784;1099;104307;-83
2023/01/07 08:33:46;;;;;;;22.90;11.37;;;;;;;3.03;71.62;101392.52;123832;1099;104252;-82
2023/01/07 08:36:17;;;;;;;25.75;11.50;;;;;;;3.03;72.17;101389.92;123792;1099;104217;-84
2023/01/07 08:38:52;;;;;;;25.67;11.13;;;;;;;3.05;72.35;101385.78;123752;1099;104373;-84
2023/01/07 08:41:24;;;;;;;23.30;11.30;;;;;;;3.05;72.27;101383.19;123873;1099;104248;-86
2023/01/07 08:43:56;;;;;;;23.60;10.73;;;;;;;3.05;71.43;101390.97;123813;1099;104245;-79
2023/01/07 08:46:27;;;;;;;26.07;11.37;;;;;;;3.04;71.14;101399.52;123805;1098;104242;-84
2023/01/07 08:48:58;;;;;;;24.43;11.00;;;;;;;3.03;71.65;101402.88;123841;1100;104303;-84
2023/01/07 08:51:29;;;;;;;23.10;11.13;;;;;;;3.04;71.52;101396.03;123863;1099;104268;-81
2023/01/07 08:54:01;;;;;;;22.87;10.57;;;;;;;3.06;72.09;101390.16;123785;1100;104297;-84
2023/01/07 08:56:32;;;;;;;22.60;10.40;;;;;;;3.12;72.43;101400.13;123808;1099;104246;-82
2023/01/07 08:59:03;;;;;;;22.90;11.20;;;;;;;3.15;71.87;101390.01;123815;1099;104269;-82
2023/01/07 09:01:35;;;;;;;21.25;10.10;;;;;;;3.17;72.27;101390.13;123837;1099;104293;-84
2023/01/07 09:04:06;;;;;;;22.27;10.13;;;;;;;3.17;71.35;101383.24;123814;1099;104300;-84
2023/01/07 09:06:37;;;;;;;23.27;10.73;;;;;;;3.24;71.59;101385.55;123742;1102;104428;-83
2023/01/07 09:09:10;;;;;;;22.40;10.73;;;;;;;3.32;72.07;101385.23;123917;1102;104297;-85
2023/01/07 09:11:42;;;;;;;22.90;10.50;;;;;;;3.36;71.75;101383.00;123819;1099;104303;-84
2023/01/07 09:14:13;;;;;;;24.90;11.20;;;;;;;3.41;71.80;101380.77;123821;1099;104159;-82
2023/01/07 09:16:44;;;;;;;23.20;10.50;;;;;;;3.39;71.49;101372.86;123820;1099;104290;-84
2023/01/07 09:19:16;;;;;;;25.17;11.73;;;;;;;3.39;71.22;101367.67;123740;1099;104373;-81
2023/01/07 09:21:47;;;;;;;23.20;11.57;;;;;;;3.41;70.92;101370.39;123770;1099;104217;-83
2023/01/07 09:24:18;;;;;;;23.50;11.60;;;;;;;3.39;71.80;101364.19;123789;1099;104255;-83
2023/01/07 09:26:50;;;;;;;23.17;11.23;;;;;;;3.39;71.67;101356.40;123823;1099;104204;-85
2023/01/07 09:29:21;;;;;;;22.60;11.13;;;;;;;3.40;71.42;101347.84;123799;1099;104366;-83
2023/01/07 09:31:52;;;;;;;24.17;11.47;;;;;;;3.42;71.91;101346.27;123796;1099;104242;-83
2023/01/07 09:34:23;;;;;;;24.95;11.30;;;;;;;3.46;72.04;101339.61;123754;1102;104652;-84
2023/01/07 09:36:55;;;;;;;23.87;10.80;;;;;;;3.54;71.36;101331.64;123766;1099;109565;-84
2023/01/07 09:39:26;;;;;;;22.77;11.10;;;;;;;3.60;72.03;101329.52;123789;1099;104405;-84
2023/01/07 09:42:04;;;;;;;24.07;11.60;;;;;;;3.70;71.53;101323.33;123820;1099;104287;-84
2023/01/07 09:45:02;;;;;;;22.63;11.50;;;;;;;3.82;71.05;101328.57;123775;1099;104376;-83
2023/01/07 09:47:36;;;;;;;22.33;10.80;;;;;;;3.88;71.63;101329.04;123737;1099;104386;-84
2023/01/07 09:50:16;;;;;;;23.73;10.37;;;;;;;3.94;71.07;101329.50;123850;1099;104255;-85
2023/01/07 09:52:51;;;;;;;22.47;10.87;;;;;;;3.99;71.88;101324.66;123768;1099;104280;-84
2023/01/07 09:55:35;;;;;;;23.43;11.20;;;;;;;3.99;71.08;101322.06;123897;1099;104246;-83
2023/01/07 09:58:09;;;;;;;23.77;9.80;;;;;;;3.98;71.06;101325.44;123766;1099;104278;-84
2023/01/07 10:00:44;;;;;;;;;;;;;;;3.96;71.18;101319.23;123939;1099;104197;-83
2023/01/07 10:03:28;;;;;;;22.97;11.00;;;;;;;3.96;71.22;101322.72;123882;1099;104257;-82
2023/01/07 10:06:10;;;;;;;22.62;10.00;;;;;;;4.00;70.79;101328.14;123854;1099;104351;-83
2023/01/07 10:08:53;;;;;;;22.77;10.33;;;;;;;4.04;71.07;101322.41;123858;1099;104380;-84
2023/01/07 10:11:36;;;;;;;20.45;9.23;;;;;;;4.11;71.32;101319.45;123791;1099;104322;-83
2023/01/07 10:14:29;;;;;;;18.47;8.70;;;;;;;4.15;70.82;101324.10;123804;1099;104628;-85
2023/01/07 10:17:12;;;;;;;20.87;9.53;;;;;;;4.12;70.71;101316.97;123897;1099;104277;-82
2023/01/07 10:19:52;;;;;;;20.40;8.90;;;;;;;4.16;71.10;101312.00;123744;1102;104245;-84
2023/01/07 10:22:31;;;;;;;21.10;9.60;;;;;;;4.18;71.01;101318.24;123865;1099;104252;-84
2023/01/07 10:25:12;;;;;;;19.63;8.97;;;;;;;4.20;70.37;101312.34;123856;1099;104328;-83
2023/01/07 10:27:46;;;;;;;20.43;8.97;;;;;;;4.23;70.67;101303.89;123898;1102;104217;-84
2023/01/07 10:30:23;;;;;;;16.73;8.03;;;;;;;4.26;70.69;101302.41;123880;1102;104252;-84
2023/01/07 10:33:01;;;;;;;19.27;8.43;;;;;;;4.33;70.25;101303.76;123668;1099;104354;-84
2023/01/07 10:35:39;;;;;;;18.50;8.60;;;;;;;4.37;70.09;101297.11;123757;1099;104323;-84
2023/01/07 10:38:17;;;;;;;19.30;9.13;;;;;;;4.37;69.87;101299.71;123779;1099;104412;-82
2023/01/07 10:40:53;;;;;;;16.50;7.70;;;;;;;4.37;70.55;101298.01;123833;1099;104643;-84
2023/01/07 10:43:47;;;;;;;18.47;8.80;;;;;;;4.39;70.66;101299.02;123870;1099;104300;-83
2023/01/07 10:46:30;;;;;;;19.47;8.80;;;;;;;4.38;69.89;101293.70;123850;1099;104319;-84
2023/01/07 10:49:24;;;;;;;17.83;8.23;;;;;;;4.38;70.24;101293.70;123851;1099;118010;-85
2023/01/07 10:52:12;;;;;;;19.60;8.27;;;;;;;4.35;70.08;101290.87;123725;1099;104351;-83
2023/01/07 10:55:13;;;;;;;16.53;8.40;;;;;;;4.34;69.69;101278.70;123809;1099;104310;-83
2023/01/07 10:57:45;;;;;;;18.33;8.30;;;;;;;4.34;70.28;101276.10;123906;1099;104214;-84
2023/01/07 11:00:18;;;;;;;18.80;8.90;;;;;;;4.36;70.33;101290.09;123803;1099;104363;-84
2023/01/07 11:02:54;;;;;;;21.20;8.70;;;;;;;4.38;70.33;101292.03;123883;1099;104275;-82
2023/01/07 11:05:32;;;;;;;19.40;8.40;;;;;;;4.37;69.71;101290.21;123832;1099;104300;-83
2023/01/07 11:08:11;;;;;;;19.20;8.50;;;;;;;4.36;69.92;101282.30;123816;1099;104248;-84
2023/01/07 11:10:42;;;;;;;17.93;8.33;;;;;;;4.36;70.24;101283.20;123854;1100;104261;-83
2023/01/07 11:13:21;;;;;;;21.17;8.53;;;;;;;4.39;69.86;101277.33;123763;1099;104268;-84
2023/01/07 11:15:57;;;;;;;16.97;7.63;;;;;;;4.43;69.88;101275.06;123856;1099;104274;-85
2023/01/07 11:18:34;;;;;;;17.55;8.00;;;;;;;4.46;69.94;101264.00;123831;1099;104181;-84
2023/01/07 11:21:05;;;;;;;15.75;7.60;;;;;;;4.49;69.77;101264.22;123838;1099;104313;-83
2023/01/07 11:23:38;;;;;;;18.47;7.23;;;;;;;4.54;69.72;101260.25;123855;1099;104351;-83
2023/01/07 11:26:17;;;;;;;18.30;8.00;;;;;;;4.59;69.58;101263.19;123794;1099;104723;-84
2023/01/07 11:28:56;;;;;;;17.47;8.30;;;;;;;4.59;69.55;101265.78;123878;1099;104355;-84
2023/01/07 11:31:48;;;;;;;18.00;8.43;;;;;;;4.60;69.84;101260.69;123840;1099;104270;-82
2023/01/07 11:34:23;;;;;;;16.47;7.67;;;;;;;4.62;68.99;101264.30;123925;1099;104255;-82
2023/01/07 11:36:54;;;;;;;17.97;7.87;;;;;;;4.59;69.40;101268.38;123878;1099;104306;-84
2023/01/07 11:39:28;;;;;;;17.43;7.77;;;;;;;4.57;69.52;101263.07;123846;1099;104232;-84